Time,TemperatureF,DewpointF,PressureIn,WindDirection,WindDirectionDegrees,WindSpeedMPH,WindSpeedGustMPH,Humidity,HourlyPrecipIn,Conditions,Clouds,dailyrainin,SoftwareType,DateUTC
2013-05-18 00:00:00,60.8,45.0,30.07,North,0,0.0,-999.0,56,-99.99,,,0.00,Acu-Link.com,2013-05-18 04:00:00,
2013-05-18 00:15:00,60.4,45.1,30.08,ESE,112,1.1,-999.0,57,-99.99,,,0.00,Acu-Link.com,2013-05-18 04:15:00,
2013-05-18 00:30:00,60.1,44.4,30.07,NNW,337,0.0,-999.0,56,-99.99,,,0.00,Acu-Link.com,2013-05-18 04:30:00,
2013-05-18 00:45:00,60.1,44.8,30.07,SE,135,0.0,-999.0,57,-99.99,,,0.00,Acu-Link.com,2013-05-18 04:45:00,
2013-05-18 01:01:00,59.5,44.7,30.07,SSW,202,0.0,-999.0,58,-99.99,,,0.00,Acu-Link.com,2013-05-18 05:01:00,
2013-05-18 01:16:00,59.4,45.1,30.08,NNE,22,1.7,-999.0,59,-99.99,,,0.00,Acu-Link.com,2013-05-18 05:16:00,
2013-05-18 01:31:00,59.0,45.6,30.07,ESE,112,0.0,-999.0,61,-99.99,,,0.00,Acu-Link.com,2013-05-18 05:31:00,
2013-05-18 01:46:00,58.5,45.5,30.06,ESE,112,1.7,-999.0,62,-99.99,,,0.00,Acu-Link.com,2013-05-18 05:46:00,
2013-05-18 02:01:00,58.1,45.1,30.07,NE,45,2.2,-999.0,62,-99.99,,,0.00,Acu-Link.com,2013-05-18 06:01:00,
2013-05-18 02:16:00,57.9,45.0,30.07,WNW,292,0.0,-999.0,62,-99.99,,,0.00,Acu-Link.com,2013-05-18 06:16:00,
2013-05-18 02:31:00,57.6,45.1,30.07,NNE,22,0.0,-999.0,63,-99.99,,,0.00,Acu-Link.com,2013-05-18 06:31:00,
2013-05-18 02:46:00,57.2,44.7,30.07,NNE,22,1.7,-999.0,63,-99.99,,,0.00,Acu-Link.com,2013-05-18 06:46:00,
2013-05-18 03:02:00,57.2,44.7,30.06,NNE,22,0.0,-999.0,63,-99.99,,,0.00,Acu-Link.com,2013-05-18 07:02:00,
2013-05-18 03:17:00,57.0,44.9,30.07,ENE,67,0.0,-999.0,64,-99.99,,,0.00,Acu-Link.com,2013-05-18 07:17:00,
2013-05-18 03:32:00,57.0,45.4,30.07,ESE,112,0.0,-999.0,65,-99.99,,,0.00,Acu-Link.com,2013-05-18 07:32:00,
2013-05-18 03:47:00,56.7,45.1,30.07,East,90,0.0,-999.0,65,-99.99,,,0.00,Acu-Link.com,2013-05-18 07:47:00,
2013-05-18 04:02:00,56.5,44.9,30.07,ESE,112,0.0,-999.0,65,-99.99,,,0.00,Acu-Link.com,2013-05-18 08:02:00,
2013-05-18 04:18:00,56.5,44.9,30.08,North,0,0.0,-999.0,65,-99.99,,,0.00,Acu-Link.com,2013-05-18 08:18:00,
2013-05-18 04:33:00,55.9,45.1,30.08,WNW,292,0.0,-999.0,67,-99.99,,,0.00,Acu-Link.com,2013-05-18 08:33:00,
2013-05-18 04:48:00,55.9,45.5,30.07,NNE,22,0.0,-999.0,68,-99.99,,,0.00,Acu-Link.com,2013-05-18 08:48:00,
2013-05-18 05:03:00,55.8,45.8,30.07,SE,135,0.0,-999.0,69,-99.99,,,0.00,Acu-Link.com,2013-05-18 09:03:00,
2013-05-18 05:19:00,55.2,45.2,30.07,ESE,112,0.0,-999.0,69,-99.99,,,0.00,Acu-Link.com,2013-05-18 09:19:00,
2013-05-18 05:34:00,55.0,45.0,30.07,ESE,112,0.0,-999.0,69,-99.99,,,0.00,Acu-Link.com,2013-05-18 09:34:00,
2013-05-18 05:49:00,54.9,45.3,30.07,North,0,1.7,-999.0,70,-99.99,,,0.00,Acu-Link.com,2013-05-18 09:49:00,
2013-05-18 06:04:00,55.0,45.8,30.08,NE,45,0.0,-999.0,71,-99.99,,,0.00,Acu-Link.com,2013-05-18 10:04:00,
2013-05-18 06:19:00,55.0,45.8,30.08,ESE,112,2.7,-999.0,71,-99.99,,,0.00,Acu-Link.com,2013-05-18 10:19:00,
2013-05-18 06:34:00,55.2,46.0,30.09,East,90,2.2,-999.0,71,-99.99,,,0.00,Acu-Link.com,2013-05-18 10:34:00,
2013-05-18 06:49:00,55.2,46.3,30.09,SSE,157,2.2,-999.0,72,-99.99,,,0.00,Acu-Link.com,2013-05-18 10:49:00,
2013-05-18 07:05:00,55.6,46.7,30.09,ESE,112,2.7,-999.0,72,-99.99,,,0.00,Acu-Link.com,2013-05-18 11:05:00,
2013-05-18 07:20:00,55.8,46.5,30.09,NNE,22,1.7,-999.0,71,-99.99,,,0.00,Acu-Link.com,2013-05-18 11:20:00,
2013-05-18 07:35:00,56.3,46.6,30.09,NNE,22,2.2,-999.0,70,-99.99,,,0.00,Acu-Link.com,2013-05-18 11:35:00,
2013-05-18 07:50:00,57.0,46.2,30.10,ESE,112,2.2,-999.0,67,-99.99,,,0.00,Acu-Link.com,2013-05-18 11:50:00,
2013-05-18 08:05:00,57.4,47.3,30.09,NE,45,2.2,-999.0,69,-99.99,,,0.00,Acu-Link.com,2013-05-18 12:05:00,
2013-05-18 08:20:00,58.5,47.2,30.10,East,90,1.7,-999.0,66,-99.99,,,0.00,Acu-Link.com,2013-05-18 12:20:00,
2013-05-18 08:35:00,59.2,47.0,30.10,NE,45,1.7,-999.0,64,-99.99,,,0.00,Acu-Link.com,2013-05-18 12:35:00,
2013-05-18 08:50:00,60.1,47.5,30.11,ESE,112,0.0,-999.0,63,-99.99,,,0.00,Acu-Link.com,2013-05-18 12:50:00,
2013-05-18 09:05:00,59.9,46.4,30.11,NE,45,1.1,-999.0,61,-99.99,,,0.00,Acu-Link.com,2013-05-18 13:05:00,
2013-05-18 09:21:00,59.9,47.7,30.11,SSE,157,2.2,-999.0,64,-99.99,,,0.00,Acu-Link.com,2013-05-18 13:21:00,
2013-05-18 09:36:00,60.8,48.5,30.10,East,90,1.7,-999.0,64,-99.99,,,0.00,Acu-Link.com,2013-05-18 13:36:00,
2013-05-18 09:51:00,60.3,48.5,30.10,North,0,2.2,-999.0,65,-99.99,,,0.00,Acu-Link.com,2013-05-18 13:51:00,
2013-05-18 10:06:00,61.0,48.3,30.10,West,270,1.1,-999.0,63,-99.99,,,0.00,Acu-Link.com,2013-05-18 14:06:00,
2013-05-18 10:21:00,61.3,48.2,30.10,North,0,3.2,-999.0,62,-99.99,,,0.00,Acu-Link.com,2013-05-18 14:21:00,
2013-05-18 10:36:00,62.6,49.0,30.11,SE,135,1.7,-999.0,61,-99.99,,,0.00,Acu-Link.com,2013-05-18 14:36:00,
2013-05-18 10:51:00,63.0,49.3,30.11,East,90,1.7,-999.0,61,-99.99,,,0.00,Acu-Link.com,2013-05-18 14:51:00,
2013-05-18 11:06:00,64.2,50.0,30.10,ESE,112,1.1,-999.0,60,-99.99,,,0.00,Acu-Link.com,2013-05-18 15:06:00,
2013-05-18 11:21:00,64.9,50.7,30.10,ENE,67,0.0,-999.0,60,-99.99,,,0.00,Acu-Link.com,2013-05-18 15:21:00,
2013-05-18 11:36:00,65.7,50.0,30.10,SSW,202,1.7,-999.0,57,-99.99,,,0.00,Acu-Link.com,2013-05-18 15:36:00,
2013-05-18 11:52:00,66.6,50.9,30.09,SE,135,1.7,-999.0,57,-99.99,,,0.00,Acu-Link.com,2013-05-18 15:52:00,
2013-05-18 12:07:00,65.5,49.9,30.08,NE,45,2.7,-999.0,57,-99.99,,,0.00,Acu-Link.com,2013-05-18 16:07:00,
2013-05-18 12:22:00,65.5,50.8,30.09,NNE,22,1.7,-999.0,59,-99.99,,,0.00,Acu-Link.com,2013-05-18 16:22:00,
2013-05-18 12:37:00,67.1,50.9,30.08,NNE,22,4.2,-999.0,56,-99.99,,,0.00,Acu-Link.com,2013-05-18 16:37:00,
2013-05-18 12:52:00,65.5,50.8,30.08,SSE,157,3.2,-999.0,59,-99.99,,,0.00,Acu-Link.com,2013-05-18 16:52:00,
2013-05-18 13:07:00,65.5,51.2,30.07,SE,135,3.2,-999.0,60,-99.99,,,0.00,Acu-Link.com,2013-05-18 17:07:00,
2013-05-18 13:22:00,66.0,51.7,30.08,East,90,3.7,-999.0,60,-99.99,,,0.00,Acu-Link.com,2013-05-18 17:22:00,
2013-05-18 13:37:00,66.6,51.8,30.07,NNE,22,2.7,-999.0,59,-99.99,,,0.00,Acu-Link.com,2013-05-18 17:37:00,
2013-05-18 13:52:00,66.9,52.1,30.07,East,90,3.7,-999.0,59,-99.99,,,0.00,Acu-Link.com,2013-05-18 17:52:00,
2013-05-18 14:08:00,67.5,53.1,30.06,NNE,22,1.7,-999.0,60,-99.99,,,0.00,Acu-Link.com,2013-05-18 18:08:00,
2013-05-18 14:23:00,68.7,53.3,30.06,NNE,22,1.7,-999.0,58,-99.99,,,0.00,Acu-Link.com,2013-05-18 18:23:00,
2013-05-18 14:38:00,68.9,54.0,30.07,SSE,157,4.7,-999.0,59,-99.99,,,0.00,Acu-Link.com,2013-05-18 18:38:00,
2013-05-18 14:53:00,70.5,54.5,30.06,NNE,22,2.2,-999.0,57,-99.99,,,0.00,Acu-Link.com,2013-05-18 18:53:00,
2013-05-18 15:08:00,70.7,55.2,30.07,ESE,112,0.0,-999.0,58,-99.99,,,0.00,Acu-Link.com,2013-05-18 19:08:00,
2013-05-18 15:23:00,70.3,54.8,30.06,SE,135,0.0,-999.0,58,-99.99,,,0.00,Acu-Link.com,2013-05-18 19:23:00,
2013-05-18 15:38:00,68.5,54.1,30.06,SSE,157,2.7,-999.0,60,-99.99,,,0.00,Acu-Link.com,2013-05-18 19:38:00,
2013-05-18 15:53:00,68.7,56.5,30.07,ESE,112,0.0,-999.0,65,-99.99,,,0.00,Acu-Link.com,2013-05-18 19:53:00,
2013-05-18 16:08:00,68.0,54.0,30.06,NE,45,0.0,-999.0,61,-99.99,,,0.00,Acu-Link.com,2013-05-18 20:08:00,
2013-05-18 16:24:00,68.2,54.7,30.06,North,0,1.7,-999.0,62,-99.99,,,0.00,Acu-Link.com,2013-05-18 20:24:00,
2013-05-18 16:39:00,68.2,55.5,30.06,NNE,22,0.0,-999.0,64,-99.99,,,0.00,Acu-Link.com,2013-05-18 20:39:00,
2013-05-18 16:54:00,68.4,55.3,30.05,East,90,2.2,-999.0,63,-99.99,,,0.00,Acu-Link.com,2013-05-18 20:54:00,
2013-05-18 17:09:00,68.0,54.5,30.05,ESE,112,2.2,-999.0,62,-99.99,,,0.00,Acu-Link.com,2013-05-18 21:09:00,
2013-05-18 17:24:00,67.8,54.7,30.05,North,0,0.0,-999.0,63,-99.99,,,0.00,Acu-Link.com,2013-05-18 21:24:00,
2013-05-18 17:39:00,68.0,54.5,30.05,NE,45,3.7,-999.0,62,-99.99,,,0.00,Acu-Link.com,2013-05-18 21:39:00,
2013-05-18 17:54:00,67.8,54.7,30.05,NE,45,5.3,-999.0,63,-99.99,,,0.00,Acu-Link.com,2013-05-18 21:54:00,
2013-05-18 18:09:00,67.6,54.5,30.05,NNE,22,2.7,-999.0,63,-99.99,,,0.00,Acu-Link.com,2013-05-18 22:09:00,
2013-05-18 18:24:00,67.6,55.0,30.04,NNW,337,3.2,-999.0,64,-99.99,,,0.00,Acu-Link.com,2013-05-18 22:24:00,
2013-05-18 18:40:00,67.6,55.4,30.05,NNE,22,1.1,-999.0,65,-99.99,,,0.00,Acu-Link.com,2013-05-18 22:40:00,
2013-05-18 18:55:00,67.6,55.0,30.05,NNE,22,2.2,-999.0,64,-99.99,,,0.00,Acu-Link.com,2013-05-18 22:55:00,
2013-05-18 19:10:00,67.5,54.9,30.05,SE,135,0.0,-999.0,64,-99.99,,,0.00,Acu-Link.com,2013-05-18 23:10:00,
2013-05-18 19:25:00,67.1,54.9,30.06,North,0,2.7,-999.0,65,-99.99,,,0.00,Acu-Link.com,2013-05-18 23:25:00,
2013-05-18 19:40:00,66.9,54.7,30.06,SE,135,0.0,-999.0,65,-99.99,,,0.00,Acu-Link.com,2013-05-18 23:40:00,
2013-05-18 19:55:00,66.7,54.1,30.07,ESE,112,0.0,-999.0,64,-99.99,,,0.00,Acu-Link.com,2013-05-18 23:55:00,
2013-05-18 20:10:00,66.4,53.8,30.07,SSE,157,4.2,-999.0,64,-99.99,,,0.00,Acu-Link.com,2013-05-19 00:10:00,
2013-05-18 20:25:00,66.0,53.9,30.06,South,180,2.2,-999.0,65,-99.99,,,0.00,Acu-Link.com,2013-05-19 00:25:00,
2013-05-18 20:40:00,65.7,53.6,30.06,SE,135,5.3,-999.0,65,-99.99,,,0.00,Acu-Link.com,2013-05-19 00:40:00,
2013-05-18 20:56:00,65.3,53.6,30.06,NE,45,2.2,-999.0,66,-99.99,,,0.00,Acu-Link.com,2013-05-19 00:56:00,
2013-05-18 21:11:00,65.1,53.9,30.07,ESE,112,4.2,-999.0,67,-99.99,,,0.00,Acu-Link.com,2013-05-19 01:11:00,
2013-05-18 21:26:00,64.9,53.7,30.08,West,270,2.2,-999.0,67,-99.99,,,0.00,Acu-Link.com,2013-05-19 01:26:00,
2013-05-18 21:41:00,64.6,53.8,30.08,SE,135,2.7,-999.0,68,-99.99,,,0.00,Acu-Link.com,2013-05-19 01:41:00,
2013-05-18 21:56:00,64.6,54.2,30.08,SE,135,1.7,-999.0,69,-99.99,,,0.00,Acu-Link.com,2013-05-19 01:56:00,
2013-05-18 22:11:00,64.2,54.2,30.09,SE,135,0.0,-999.0,70,-99.99,,,0.00,Acu-Link.com,2013-05-19 02:11:00,
2013-05-18 22:26:00,64.0,54.4,30.09,NNE,22,1.7,-999.0,71,-99.99,,,0.00,Acu-Link.com,2013-05-19 02:26:00,
2013-05-18 22:41:00,63.7,54.5,30.09,ESE,112,2.2,-999.0,72,-99.99,,,0.00,Acu-Link.com,2013-05-19 02:41:00,
2013-05-18 22:56:00,63.5,54.7,30.09,SSE,157,1.7,-999.0,73,-99.99,,,0.00,Acu-Link.com,2013-05-19 02:56:00,
2013-05-18 23:12:00,63.3,54.9,30.08,East,90,2.7,-999.0,74,-99.99,,,0.00,Acu-Link.com,2013-05-19 03:12:00,
2013-05-18 23:30:00,63.1,54.7,30.08,ENE,67,4.2,-999.0,74,-99.99,,,0.00,Acu-Link.com,2013-05-19 03:30:00,
2013-05-18 23:47:00,62.8,54.4,30.09,NW,315,0.0,-999.0,74,-99.99,,,0.00,Acu-Link.com,2013-05-19 03:47:00,